D/T METAR WX W/DIR W/SPE G/SPE TEMP DEWP
27/05/19 06:56 EGUN 270556Z 25007KT 9999 BKN060 12/12 A2981 RMK AO2A SLP098 T01160116 10116 20081 55000 . WSW (250°) 8.1mph 11.6°C 11.6°C
27/05/19 05:56 EGUN 270456Z AUTO 22006KT 9999 CLR 09/09 A2981 RMK AO2 SLP098 T00890089 . SW (220°) 6.9mph 8.9°C 8.9°C
27/05/19 04:56 EGUN 270356Z AUTO 25007KT 9999 CLR 09/09 A2981 RMK AO2 SLP098 T00880088 . WSW (250°) 8.1mph 8.8°C 8.8°C
27/05/19 03:56 EGUN 270256Z AUTO 24005KT 9999 CLR 08/08 A2981 RMK AO2 SLP098 T00840084 57007 . WSW (240°) 5.8mph 8.4°C 8.4°C
27/05/19 02:56 EGUN 270156Z AUTO 24006KT 9999 SCT055 09/09 A2982 RMK AO2 SLP101 T00910088 . WSW (240°) 6.9mph 9.1°C 8.8°C
27/05/19 01:56 EGUN 270056Z AUTO 23005KT 9999 CLR 09/08 A2982 RMK AO2 SLP101 T00890081 . SW (230°) 5.8mph 8.9°C 8.1°C
27/05/19 00:56 EGUN 262356Z AUTO 23005KT 9999 CLR 09/08 A2983 RMK AO2 SLPNO T00930079 10183 20093 402130093 58002 . SW (230°) 5.8mph 9.3°C 7.9°C
26/05/19 23:56 EGUN 262256Z AUTO 25005KT 9999 CLR 10/07 A2984 RMK AO2 SLP108 T01040071 . WSW (250°) 5.8mph 10.4°C 7.1°C
26/05/19 22:56 EGUN 262156Z AUTO 28008KT 9999 CLR 11/08 A2984 RMK AO2 SLP108 T01070081 . W (280°) 9.2mph 10.7°C 8.1°C
26/05/19 21:56 EGUN 262056Z AUTO 31008KT 9999 CLR 13/07 A2984 RMK AO2 SLP108 T01330069 52017 . NW (310°) 9.2mph 13.3°C 6.9°C
26/05/19 20:56 EGUN 261956Z AUTO 31011KT 9999 FEW045 16/08 A2982 RMK AO2 SLP101 T01560081 . NW (310°) 12.7mph 15.6°C 8.1°C
26/05/19 20:46 EGUN 261946Z AUTO 32012KT 9999 SCT044 16/09 A2982 RMK AO2 SLP101 $ NW (320°) 13.8mph 16°C 9°C
26/05/19 19:56 EGUN 261856Z AUTO 32013G21KT 9999 BKN042 BKN060 17/10 A2981 RMK AO2 SLP098 T01710095 . NW (320°) 15.0mph 24.2mph 17.1°C 9.5°C
26/05/19 19:51 EGUN 261851Z AUTO 32016G22KT 9999 BKN042 BKN060 17/10 A2980 RMK AO2 SLP094 $ NW (320°) 18.4mph 25.3mph 17°C 10°C
26/05/19 18:56 EGUN 261756Z AUTO 30009KT 9999 OVC030 18/16 A2979 RMK AO2 SLP091 60001 T01810157 10201 20175 55004 . WNW (300°) 10.4mph 18.1°C 15.7°C
26/05/19 18:39 EGUN 261739Z AUTO 30013KT 9999 BKN028 BKN034 OVC080 19/17 A2979 RMK AO2 WSHFT 25 CIG 028V034 BKN028 V SCT SLP091 $ WNW (300°) 15.0mph 19°C 17°C
26/05/19 18:16 EGUN 261716Z AUTO 26013KT 9999 FEW026 SCT032 BKN080 20/17 A2978 RMK AO2 SLP087 $ W (260°) 15.0mph 20°C 17°C
26/05/19 17:01 EGUN 261601Z AUTO 26012G21KT 9999 SCT025 SCT030 BKN050 OVC060 19/18 A2979 RMK AO2 SLP091 $ W (260°) 13.8mph 24.2mph 19°C 18°C
26/05/19 16:26 EGUN 261526Z AUTO 26011G19KT 9999 BKN024 OVC060 19/18 A2979 RMK AO2 SLP091 $ W (260°) 12.7mph 21.9mph 19°C 18°C
26/05/19 16:16 EGUN 261516Z AUTO 24014G22KT 9999 SCT021 BKN027 OVC060 19/19 A2979 RMK AO2 CIG 021V060 BKN V SCT SLP091 $ WSW (240°) 16.1mph 25.3mph 19°C 19°C
26/05/19 15:51 EGUN 261451Z 25015G19KT 9999 BKN019 OVC055 19/19 A2980 RMK AO2A CIG 019V055 BKN V SCT SLP094 $ WSW (250°) 17.3mph 21.9mph 19°C 19°C
26/05/19 15:01 EGUN 261401Z 25013KT 9999 OVC020 18/18 A2982 RMK AO2A SLP101 $ WSW (250°) 15.0mph 18°C 18°C
26/05/19 14:41 EGUN 261341Z 25015G19KT 9999 OVC020 18/18 A2982 RMK AO2A RAB02E30DZB30E31 OVC V BKN SLP101 $ WSW (250°) 17.3mph 21.9mph 18°C 18°C
26/05/19 14:02 EGUN 261302Z 26019G24KT 9999 -RA OVC026 19/17 A2981 RMK AO2A RAB02 SLP098 $ -RA W (260°) 21.9mph 27.6mph 19°C 17°C
26/05/19 12:56 EGUN 261156Z 25015G22KT 9999 BKN027 BKN032 OVC060 20/17 A2982 RMK RAB1108E1117 SLP101 WND DATA ESTMD SLP/ALSTG ESTMD RVRNO . WSW (250°) 17.3mph 25.3mph 20°C 17°C
26/05/19 12:32 EGUN 261132Z AUTO 26015G19KT 9999 BKN028 OVC033 21/17 A2983 RMK AO2 RAB08E17 SLP104 $ W (260°) 17.3mph 21.9mph 21°C 17°C
26/05/19 12:17 EGUN 261117Z AUTO 25013G20KT 9999 BKN028 OVC034 21/17 A2983 RMK AO2 RAB08E17 SLPNO $ WSW (250°) 15.0mph 23.0mph 21°C 17°C
26/05/19 11:31 EGUN 261031Z AUTO 24014G20KT 9999 BKN023 BKN043 BKN080 21/18 A2985 RMK AO2 CIG 023V080 BKN023 V SCT SLPNO $ WSW (240°) 16.1mph 23.0mph 21°C 18°C
26/05/19 10:56 EGUN 260956Z AUTO 24012G19KT 9999 FEW021 OVC070 19/17 A2986 RMK AO2 SLP115 T01850173 . WSW (240°) 13.8mph 21.9mph 18.5°C 17.3°C
26/05/19 09:56 EGUN 260856Z AUTO 25011KT 9999 BKN060 OVC075 18/17 A2986 RMK AO2 SLP115 T01760169 57010 . WSW (250°) 12.7mph 17.6°C 16.9°C
26/05/19 08:56 EGUN 260756Z AUTO 23011KT 9999 OVC055 16/16 A2987 RMK AO2 SLP118 T01640164 . SW (230°) 12.7mph 16.4°C 16.4°C
26/05/19 07:56 EGUN 260656Z AUTO 23008KT 9999 OVC070 16/16 A2989 RMK AO2 SLP125 T01620162 . SW (230°) 9.2mph 16.2°C 16.2°C
26/05/19 06:56 EGUN 260556Z AUTO 23009KT 9999 OVC070 16/16 A2989 RMK AO2 SLP125 T01610161 10163 20151 57014 . SW (230°) 10.4mph 16.1°C 16.1°C
26/05/19 05:56 EGUN 260456Z COR AUTO 23008KT 9999 OVC070 15/15 A2990 RMK AO2 SLP128 T01540154 $ COR 0504 SW (230°) 9.2mph 15.4°C 15.4°C
26/05/19 04:56 EGUN 260356Z AUTO 23005KT 9999 OVC070 15/15 A2992 RMK AO2 SLPNO T01530153 . SW (230°) 5.8mph 15.3°C 15.3°C
26/05/19 03:56 EGUN 260256Z AUTO 23006KT 9999 OVC065 16/15 A2993 RMK AO2 SLP138 T01550153 57014 . SW (230°) 6.9mph 15.5°C 15.3°C
26/05/19 02:56 EGUN 260156Z AUTO 24006KT 9999 OVC070 16/16 A2995 RMK AO2 SLP145 T01570157 . WSW (240°) 6.9mph 15.7°C 15.7°C
26/05/19 01:56 EGUN 260056Z AUTO 25005KT 9999 OVC070 16/15 A2996 RMK AO2 SLP148 T01610150 . WSW (250°) 5.8mph 16.1°C 15°C
26/05/19 01:31 EGUN 260031Z AUTO 24004KT 9999 SCT041 BKN055 OVC070 16/15 A2997 RMK AO2 SLP152 $ WSW (240°) 4.6mph 16°C 15°C
26/05/19 01:06 EGUN 260006Z AUTO 33003KT 9999 BKN042 OVC050 16/15 A2998 RMK AO2 SLP155 $ NNW (330°) 3.5mph 16°C 15°C
26/05/19 00:50 EGUN 252350Z AUTO 00000KT 9999 BKN050 OVC070 16/13 A2998 RMK AO2 SLPNO $ N (0°) 16°C 13°C
26/05/19 00:06 EGUN 252306Z AUTO 00000KT 9999 OVC038 17/14 A2999 RMK AO2 SLP159 $ N (0°) 17°C 14°C
25/05/19 23:06 EGUN 252206Z AUTO 00000KT 9999 BKN047 OVC055 18/12 A3000 RMK AO2 SLP162 $ N (0°) 18°C 12°C
25/05/19 22:46 EGUN 252146Z AUTO 00000KT 9999 OVC050 17/13 A3000 RMK AO2 SLP162 $ N (0°) 17°C 13°C
25/05/19 22:16 EGUN 252116Z AUTO 00000KT 9999 BKN049 OVC075 18/10 A3000 RMK AO2 SLP162 $ N (0°) 18°C 10°C
25/05/19 20:56 EGUN 251956Z AUTO 00000KT 9999 OVC100 18/10 A3000 RMK AO2 SLP162 T01830099 . N (0°) 18.3°C 9.9°C
25/05/19 19:56 EGUN 251856Z 30005KT 9999 SCT055 BKN090 OVC110 19/08 A3000 RMK AO2A SLP162 T01900080 . WNW (300°) 5.8mph 19°C 8°C
25/05/19 18:56 EGUN 251756Z 28007KT 9999 FEW130 19/08 A3001 RMK AO2A SLP165 T01940084 10221 20194 . W (280°) 8.1mph 19.4°C 8.4°C